Time;durP1;ratioP1;P1;durP2;ratioP2;P2;SDS_P1;SDS_P2;PMS_P1;PMS_P2;Temp;Humidity;BMP_temperature;BMP_pressure;BME280_temperature;BME280_humidity;BME280_pressure;Samples;Min_cycle;Max_cycle;Signal;HPM_P1;HPM_P2
2021/06/03 00:00:44;;;;;;;3.15;2.85;;;15.80;77.20;;;;;;5020082;28;20041;-70
2021/06/03 00:03:10;;;;;;;4.35;2.58;;;15.80;77.20;;;;;;5019875;28;20092;-70
2021/06/03 00:05:46;;;;;;;4.25;2.50;;;15.90;76.80;;;;;;5019918;28;20409;-70
2021/06/03 00:08:12;;;;;;;3.75;2.58;;;15.90;76.60;;;;;;5019573;28;20046;-70
2021/06/03 00:10:45;;;;;;;3.40;2.45;;;15.90;76.30;;;;;;5019880;28;20026;-70
2021/06/03 00:13:12;;;;;;;3.28;2.78;;;15.90;76.80;;;;;;5019520;28;20022;-70
2021/06/03 00:15:37;;;;;;;4.95;2.67;;;16.00;76.30;;;;;;5019767;28;20037;-70
2021/06/03 00:18:05;;;;;;;5.22;3.05;;;16.00;76.60;;;;;;5019736;28;20034;-70
2021/06/03 00:20:32;;;;;;;3.67;3.13;;;16.00;76.80;;;;;;5019356;28;20046;-70
2021/06/03 00:22:58;;;;;;;7.70;3.25;;;16.00;76.80;;;;;;5019655;28;20072;-70
2021/06/03 00:25:25;;;;;;;5.95;3.20;;;16.00;75.60;;;;;;5019271;28;20034;-70
2021/06/03 00:27:51;;;;;;;5.57;3.35;;;16.10;74.90;;;;;;5019169;28;20030;-70
2021/06/03 00:30:17;;;;;;;3.30;3.00;;;16.20;74.50;;;;;;5019242;28;20053;-70
2021/06/03 00:32:43;;;;;;;4.57;2.95;;;16.30;74.00;;;;;;5019151;28;20026;-70
2021/06/03 00:35:10;;;;;;;4.45;3.28;;;16.50;73.40;;;;;;5019339;28;20033;-72
2021/06/03 00:37:35;;;;;;;4.25;3.38;;;16.50;72.90;;;;;;5019341;28;20033;-70
2021/06/03 00:40:04;;;;;;;4.53;2.95;;;16.60;73.20;;;;;;5019332;28;20395;-70
2021/06/03 00:42:30;;;;;;;8.85;3.40;;;16.70;73.00;;;;;;5018929;28;20029;-70
2021/06/03 00:44:56;;;;;;;4.00;3.60;;;16.70;72.90;;;;;;5019286;28;20045;-70
2021/06/03 00:47:22;;;;;;;3.90;3.50;;;16.70;73.10;;;;;;5019114;28;20030;-70
2021/06/03 00:49:47;;;;;;;6.10;3.92;;;16.70;73.10;;;;;;5019135;28;20309;-70
2021/06/03 00:52:13;;;;;;;6.80;3.70;;;16.70;72.60;;;;;;5019119;28;20375;-70
2021/06/03 00:54:39;;;;;;;4.85;3.88;;;16.70;73.00;;;;;;5018757;28;20117;-70
2021/06/03 00:57:05;;;;;;;11.10;4.13;;;16.80;73.40;;;;;;5018722;28;20029;-70
2021/06/03 00:59:31;;;;;;;5.57;4.72;;;16.80;73.50;;;;;;5018036;28;20476;-70
2021/06/03 01:01:56;;;;;;;5.82;4.38;;;16.80;73.40;;;;;;5018892;28;20018;-70
2021/06/03 01:04:22;;;;;;;5.28;4.07;;;16.80;73.40;;;;;;5018541;28;20323;-70
2021/06/03 01:06:48;;;;;;;7.03;3.58;;;16.80;73.30;;;;;;5018822;28;20109;-70
2021/06/03 01:09:20;;;;;;;5.95;4.00;;;16.80;73.20;;;;;;5018422;28;20030;-71
2021/06/03 01:12:03;;;;;;;6.93;4.07;;;16.90;73.00;;;;;;5018425;28;20076;-71
2021/06/03 01:14:34;;;;;;;8.68;4.30;;;16.90;73.30;;;;;;5018661;28;20024;-71
2021/06/03 01:17:00;;;;;;;5.57;4.57;;;16.90;73.80;;;;;;5018340;28;20038;-72
2021/06/03 01:19:32;;;;;;;7.05;4.38;;;16.90;73.50;;;;;;5018383;28;20164;-71
2021/06/03 01:22:04;;;;;;;5.30;4.10;;;16.90;74.10;;;;;;5018520;28;20421;-71
2021/06/03 01:24:36;;;;;;;5.15;4.28;;;16.90;73.70;;;;;;5018197;28;20402;-70
2021/06/03 01:27:15;;;;;;;5.25;4.55;;;16.90;74.00;;;;;;5018440;28;20026;-71
2021/06/03 01:29:57;;;;;;;6.35;4.70;;;16.80;73.70;;;;;;5018498;28;20394;-71
2021/06/03 01:32:25;;;;;;;4.50;4.10;;;16.80;74.30;;;;;;5018379;28;20099;-71
2021/06/03 01:34:52;;;;;;;6.10;4.40;;;16.70;74.40;;;;;;5017949;28;20076;-71
2021/06/03 01:37:18;;;;;;;5.18;3.88;;;16.70;74.20;;;;;;5018299;28;20034;-71
2021/06/03 01:39:46;;;;;;;4.68;3.65;;;16.60;74.90;;;;;;5017943;28;20080;-70
2021/06/03 01:42:15;;;;;;;4.10;3.30;;;16.50;74.50;;;;;;5018185;28;20026;-70
2021/06/03 01:44:41;;;;;;;7.25;4.03;;;16.40;75.10;;;;;;5017713;28;20425;-71
2021/06/03 01:47:07;;;;;;;4.22;3.45;;;16.30;75.40;;;;;;5017998;28;20116;-71
2021/06/03 01:49:34;;;;;;;3.85;3.45;;;16.30;76.40;;;;;;5017771;28;20022;-71
2021/06/03 01:52:02;;;;;;;7.60;4.20;;;16.30;76.40;;;;;;5017976;28;20365;-70
2021/06/03 01:54:29;;;;;;;5.50;3.85;;;16.30;76.00;;;;;;5017969;28;20026;-71
2021/06/03 01:56:55;;;;;;;4.97;3.75;;;16.30;76.10;;;;;;5017623;28;20030;-71
2021/06/03 01:59:22;;;;;;;4.32;3.92;;;16.30;76.00;;;;;;5017579;28;20069;-70
2021/06/03 02:01:49;;;;;;;5.78;4.10;;;16.30;76.20;;;;;;5017519;28;20030;-70
2021/06/03 02:04:15;;;;;;;7.93;4.20;;;16.20;76.30;;;;;;5017550;28;20072;-70
2021/06/03 02:06:41;;;;;;;6.68;4.88;;;16.20;76.30;;;;;;5017391;28;20398;-70
2021/06/03 02:09:09;;;;;;;5.25;4.22;;;16.30;76.90;;;;;;5017415;28;20438;-70
2021/06/03 02:11:44;;;;;;;7.55;4.90;;;16.20;77.00;;;;;;5017048;28;20021;-71
2021/06/03 02:14:13;;;;;;;6.63;5.25;;;16.30;76.80;;;;;;5017437;28;20025;-70
2021/06/03 02:16:39;;;;;;;5.30;4.80;;;16.30;76.40;;;;;;5017552;28;20032;-70
2021/06/03 02:19:08;;;;;;;6.25;4.28;;;16.30;76.50;;;;;;5017380;28;20342;-71
2021/06/03 02:21:37;;;;;;;8.30;4.32;;;16.30;76.90;;;;;;5017584;28;20330;-70
2021/06/03 02:24:05;;;;;;;5.00;4.10;;;16.30;76.40;;;;;;5017256;28;20079;-71
2021/06/03 02:26:34;;;;;;;5.90;3.72;;;16.30;76.50;;;;;;5017363;28;20049;-70
2021/06/03 02:29:01;;;;;;;5.80;4.13;;;16.30;76.70;;;;;;5017051;28;20107;-70
2021/06/03 02:31:27;;;;;;;7.78;4.32;;;16.30;78.00;;;;;;5017059;28;20030;-70
2021/06/03 02:33:55;;;;;;;6.63;4.57;;;16.20;78.10;;;;;;5017377;28;20045;-70
2021/06/03 02:36:21;;;;;;;7.18;4.38;;;16.20;77.30;;;;;;5016979;28;20018;-70
2021/06/03 02:38:46;;;;;;;11.02;4.85;;;16.20;77.80;;;;;;5017319;28;20026;-71
2021/06/03 02:41:13;;;;;;;5.25;4.75;;;16.20;77.50;;;;;;5017280;28;20033;-70
2021/06/03 02:43:45;;;;;;;5.93;5.40;;;16.20;77.50;;;;;;5017315;28;20321;-70
2021/06/03 02:46:12;;;;;;;5.43;4.93;;;16.10;77.50;;;;;;5017354;28;20037;-70
2021/06/03 02:48:38;;;;;;;6.00;4.85;;;16.10;77.70;;;;;;5017133;28;20026;-71
2021/06/03 02:51:04;;;;;;;7.50;5.75;;;16.20;77.80;;;;;;5017200;28;20025;-70
2021/06/03 02:53:29;;;;;;;7.10;5.30;;;16.20;77.50;;;;;;5017158;28;20029;-70
2021/06/03 02:55:56;;;;;;;11.73;5.55;;;16.20;77.40;;;;;;5016748;28;20030;-70
2021/06/03 02:58:22;;;;;;;6.43;5.50;;;16.30;77.30;;;;;;5017093;28;20032;-70
2021/06/03 03:00:48;;;;;;;6.20;5.22;;;16.30;76.90;;;;;;5016779;28;20038;-70
2021/06/03 03:03:13;;;;;;;6.55;5.03;;;16.30;77.60;;;;;;5017099;28;20032;-70
2021/06/03 03:05:41;;;;;;;6.65;5.50;;;16.30;77.70;;;;;;5016699;28;20038;-70
2021/06/03 03:08:07;;;;;;;7.65;5.57;;;16.30;77.90;;;;;;5016608;28;20029;-70
2021/06/03 03:10:39;;;;;;;6.95;6.03;;;16.30;77.90;;;;;;5016718;28;20026;-70
2021/06/03 03:13:06;;;;;;;8.13;5.63;;;16.30;77.50;;;;;;5016664;28;20022;-70
2021/06/03 03:15:32;;;;;;;5.55;4.75;;;16.30;77.20;;;;;;5016538;28;20084;-70
2021/06/03 03:17:58;;;;;;;7.63;5.50;;;16.30;77.40;;;;;;5016593;28;20030;-70
2021/06/03 03:20:25;;;;;;;6.65;4.88;;;16.30;77.90;;;;;;5016452;28;20050;-70
2021/06/03 03:22:52;;;;;;;6.65;4.95;;;16.30;77.90;;;;;;5019933;28;20080;-70
2021/06/03 03:25:18;;;;;;;5.43;4.28;;;16.30;77.60;;;;;;5020705;28;20030;-70
2021/06/03 03:27:45;;;;;;;4.78;4.07;;;16.20;75.50;;;;;;5020295;28;20358;-70
2021/06/03 03:30:13;;;;;;;4.30;3.80;;;16.20;76.00;;;;;;5020653;28;20030;-70
2021/06/03 03:32:39;;;;;;;5.55;3.50;;;16.10;77.30;;;;;;5020269;28;20149;-70
2021/06/03 03:35:07;;;;;;;4.43;4.03;;;16.00;77.30;;;;;;5020212;28;20054;-70
2021/06/03 03:37:33;;;;;;;7.90;4.35;;;16.00;77.30;;;;;;5020421;28;20045;-70
2021/06/03 03:39:59;;;;;;;6.43;4.20;;;15.80;78.40;;;;;;5020489;28;20022;-70
2021/06/03 03:42:24;;;;;;;5.95;4.43;;;15.70;77.90;;;;;;5020442;28;20026;-70
2021/06/03 03:44:51;;;;;;;5.75;5.18;;;15.50;79.10;;;;;;5020451;28;20458;-70
2021/06/03 03:47:17;;;;;;;7.18;5.10;;;15.40;80.40;;;;;;5020270;28;20026;-70
2021/06/03 03:49:43;;;;;;;6.10;4.60;;;15.50;80.10;;;;;;5020350;28;20101;-70
2021/06/03 03:52:09;;;;;;;6.57;4.30;;;15.60;80.50;;;;;;5019930;28;20065;-70
2021/06/03 03:54:35;;;;;;;4.68;4.18;;;15.60;79.40;;;;;;5020204;28;20034;-70
2021/06/03 03:57:01;;;;;;;9.50;4.38;;;15.60;79.60;;;;;;5019839;28;20132;-70
2021/06/03 03:59:27;;;;;;;5.75;4.43;;;15.60;79.50;;;;;;5019811;28;20026;-70
2021/06/03 04:01:54;;;;;;;6.97;4.95;;;15.60;80.00;;;;;;5020075;28;20018;-70
2021/06/03 04:04:21;;;;;;;6.00;4.43;;;15.60;79.90;;;;;;5019988;28;20030;-70
2021/06/03 04:06:47;;;;;;;8.32;4.43;;;15.60;80.10;;;;;;5019955;28;20310;-70
2021/06/03 04:09:13;;;;;;;4.45;4.05;;;15.60;81.30;;;;;;5019624;28;20037;-70
2021/06/03 04:11:39;;;;;;;6.25;4.35;;;15.60;81.50;;;;;;5019585;28;20026;-70
2021/06/03 04:14:05;;;;;;;5.28;3.85;;;15.50;80.80;;;;;;5019881;28;20080;-70
2021/06/03 04:16:31;;;;;;;6.38;4.28;;;15.50;80.70;;;;;;5019730;28;20315;-70
2021/06/03 04:18:57;;;;;;;5.90;4.50;;;15.50;81.80;;;;;;5019744;28;20083;-70
2021/06/03 04:21:23;;;;;;;8.85;4.70;;;15.50;82.00;;;;;;5019176;28;20046;-70
2021/06/03 04:23:48;;;;;;;4.43;4.03;;;15.40;81.10;;;;;;5019722;28;20030;-70
2021/06/03 04:26:14;;;;;;;5.40;4.15;;;15.30;82.40;;;;;;5019547;28;20036;-70
2021/06/03 04:28:40;;;;;;;4.90;4.00;;;15.30;83.10;;;;;;5019531;28;20041;-70
2021/06/03 04:31:06;;;;;;;6.43;4.35;;;15.40;82.90;;;;;;5019240;28;20029;-70
2021/06/03 04:33:32;;;;;;;4.68;3.92;;;15.40;83.40;;;;;;5018518;28;20077;-70
2021/06/03 04:35:58;;;;;;;5.22;4.20;;;15.50;82.80;;;;;;5019420;28;20105;-70
2021/06/03 04:38:23;;;;;;;9.55;4.10;;;15.60;82.40;;;;;;5034591;28;20060;-70
2021/06/03 04:40:49;;;;;;;7.25;3.95;;;15.60;81.90;;;;;;5019056;28;20022;-70
2021/06/03 04:43:15;;;;;;;4.72;4.10;;;15.70;83.80;;;;;;5019008;28;20038;-70
2021/06/03 04:45:42;;;;;;;9.10;3.70;;;15.70;83.90;;;;;;5019279;28;20083;-70
2021/06/03 04:48:08;;;;;;;4.28;3.50;;;15.80;83.60;;;;;;5018847;28;20038;-70
2021/06/03 04:50:36;;;;;;;5.68;4.25;;;15.90;83.40;;;;;;5019162;28;20387;-70
2021/06/03 04:53:02;;;;;;;6.88;3.85;;;16.00;82.80;;;;;;5018828;28;20395;-70
2021/06/03 04:55:29;;;;;;;4.82;4.05;;;16.20;82.60;;;;;;5018709;28;20030;-70
2021/06/03 04:57:56;;;;;;;4.75;3.80;;;16.30;81.90;;;;;;5018998;28;20030;-70
2021/06/03 05:00:30;;;;;;;5.05;3.83;;;16.40;80.00;;;;;;5019012;28;20037;-70
2021/06/03 05:02:56;;;;;;;5.28;4.05;;;16.50;78.40;;;;;;5018646;28;20033;-70
2021/06/03 05:05:23;;;;;;;5.32;3.70;;;16.60;77.90;;;;;;5018804;28;20414;-70
2021/06/03 05:07:50;;;;;;;4.55;3.83;;;16.70;77.70;;;;;;5018753;28;20361;-70
2021/06/03 05:10:17;;;;;;;3.50;3.20;;;16.80;78.40;;;;;;5018832;28;20036;-70
2021/06/03 05:12:44;;;;;;;3.75;3.35;;;16.90;76.00;;;;;;5018766;28;20034;-70
2021/06/03 05:15:11;;;;;;;5.78;3.72;;;17.10;77.70;;;;;;5018798;28;20327;-71
2021/06/03 05:17:38;;;;;;;5.68;4.00;;;17.10;79.00;;;;;;5018315;28;20037;-70
2021/06/03 05:20:09;;;;;;;4.13;3.53;;;17.00;77.70;;;;;;5018327;28;20084;-70
2021/06/03 05:22:36;;;;;;;3.63;3.33;;;17.00;78.50;;;;;;5018556;28;20030;-70
2021/06/03 05:25:06;;;;;;;5.07;3.22;;;17.10;78.20;;;;;;5018448;28;20122;-70
2021/06/03 05:27:32;;;;;;;4.35;3.50;;;17.30;78.90;;;;;;5018391;28;20022;-70
2021/06/03 05:29:58;;;;;;;4.75;3.90;;;17.40;77.60;;;;;;5018169;28;20021;-70
2021/06/03 05:32:23;;;;;;;7.45;3.80;;;17.60;77.00;;;;;;5018409;28;20097;-70
2021/06/03 05:34:49;;;;;;;4.53;3.42;;;17.70;75.20;;;;;;5018285;28;20042;-70
2021/06/03 05:37:16;;;;;;;6.03;4.13;;;17.80;74.60;;;;;;5017976;28;20313;-70
2021/06/03 05:39:42;;;;;;;3.60;3.30;;;17.70;74.40;;;;;;5017961;28;20057;-70
2021/06/03 05:42:08;;;;;;;4.90;3.40;;;17.70;75.00;;;;;;5018183;28;20370;-70
2021/06/03 05:44:35;;;;;;;6.88;3.50;;;17.80;74.50;;;;;;5017786;28;20026;-70
2021/06/03 05:47:01;;;;;;;4.75;3.40;;;18.10;74.60;;;;;;5018156;28;20038;-70
2021/06/03 05:49:28;;;;;;;5.78;3.42;;;18.40;75.00;;;;;;5017704;28;20113;-70
2021/06/03 05:51:54;;;;;;;5.10;3.13;;;18.60;74.10;;;;;;5017735;28;20041;-70
2021/06/03 05:54:20;;;;;;;6.00;3.90;;;18.80;73.00;;;;;;5017669;28;20034;-71
2021/06/03 05:56:46;;;;;;;4.45;3.40;;;19.30;71.50;;;;;;5017992;28;20014;-70
2021/06/03 05:59:12;;;;;;;4.93;3.42;;;19.80;70.90;;;;;;5017613;28;20029;-71
2021/06/03 06:01:37;;;;;;;5.28;3.20;;;20.30;69.10;;;;;;5017885;28;20095;-70
2021/06/03 06:06:31;;;;;;;3.97;3.47;;;20.30;68.10;;;;;;5017521;28;20056;-71
2021/06/03 06:08:59;;;;;;;3.53;3.22;;;20.50;68.70;;;;;;5017367;28;20037;-70
2021/06/03 06:11:27;;;;;;;5.03;2.80;;;20.80;67.20;;;;;;5017387;28;20445;-71
2021/06/03 06:13:53;;;;;;;5.25;2.95;;;21.10;67.00;;;;;;5017342;28;20053;-70
2021/06/03 06:16:20;;;;;;;3.47;2.67;;;21.60;65.90;;;;;;5017552;28;20054;-71
2021/06/03 06:18:46;;;;;;;4.05;3.10;;;21.90;66.50;;;;;;5017314;28;20422;-71
2021/06/03 06:21:16;;;;;;;5.00;2.65;;;22.30;64.40;;;;;;5017059;28;20070;-71
2021/06/03 06:23:42;;;;;;;5.75;2.90;;;22.70;64.50;;;;;;5017262;28;20034;-70
2021/06/03 06:26:09;;;;;;;2.83;2.20;;;23.00;65.10;;;;;;5017103;28;20039;-71
2021/06/03 06:28:35;;;;;;;3.55;2.60;;;23.30;63.10;;;;;;5017384;28;20040;-71
2021/06/03 06:31:02;;;;;;;3.10;2.20;;;23.60;62.80;;;;;;5017090;28;20084;-71
2021/06/03 06:33:28;;;;;;;4.88;2.78;;;23.80;63.10;;;;;;5017404;28;20372;-70
2021/06/03 06:35:54;;;;;;;5.30;2.72;;;24.00;62.10;;;;;;5017006;28;20018;-71
2021/06/03 06:38:22;;;;;;;3.10;2.50;;;24.30;61.80;;;;;;5017319;28;20030;-71
2021/06/03 06:40:48;;;;;;;5.82;2.90;;;24.20;61.90;;;;;;5017264;28;20106;-71
2021/06/03 06:43:15;;;;;;;6.22;2.53;;;24.10;62.00;;;;;;5017307;28;20034;-71
2021/06/03 06:45:41;;;;;;;6.88;3.08;;;24.20;62.50;;;;;;5017248;28;20038;-71
2021/06/03 06:48:09;;;;;;;3.95;2.53;;;24.30;61.40;;;;;;5017114;28;20034;-71
2021/06/03 06:50:39;;;;;;;4.18;2.85;;;24.50;61.80;;;;;;5016828;28;20033;-71
2021/06/03 06:53:06;;;;;;;5.35;3.08;;;24.50;60.80;;;;;;5016891;28;20037;-71
2021/06/03 06:55:32;;;;;;;3.95;3.08;;;24.50;60.20;;;;;;5017367;28;20037;-71
2021/06/03 06:57:59;;;;;;;3.92;3.17;;;24.50;61.50;;;;;;5023425;28;20029;-71
2021/06/03 07:00:26;;;;;;;3.95;2.63;;;24.70;60.50;;;;;;5023372;28;20441;-71
2021/06/03 07:02:53;;;;;;;4.03;3.17;;;24.90;60.60;;;;;;5023693;28;20101;-70
2021/06/03 07:05:24;;;;;;;5.03;2.72;;;24.90;61.10;;;;;;5023535;28;20435;-71
2021/06/03 07:07:50;;;;;;;4.38;3.40;;;24.80;60.20;;;;;;5023214;28;20026;-71
2021/06/03 07:10:16;;;;;;;3.92;3.28;;;25.10;60.40;;;;;;5023296;28;20033;-70
2021/06/03 07:12:42;;;;;;;4.20;3.45;;;25.10;59.70;;;;;;5023268;28;20028;-71
2021/06/03 07:15:13;;;;;;;4.88;4.00;;;25.10;59.40;;;;;;5023176;28;20030;-71
2021/06/03 07:17:39;;;;;;;5.15;3.40;;;25.20;59.80;;;;;;5023534;28;20044;-71
2021/06/03 07:20:10;;;;;;;5.55;3.22;;;25.20;59.60;;;;;;5023039;28;20450;-71
2021/06/03 07:22:36;;;;;;;4.70;3.65;;;25.30;60.10;;;;;;5023518;28;20049;-71
2021/06/03 07:25:04;;;;;;;8.15;3.33;;;25.30;58.40;;;;;;5023083;28;20044;-71
2021/06/03 07:27:29;;;;;;;4.03;3.15;;;25.50;58.80;;;;;;5023325;28;20026;-70
2021/06/03 07:29:59;;;;;;;6.90;3.08;;;25.40;59.90;;;;;;5023409;28;20476;-71
2021/06/03 07:32:25;;;;;;;3.90;3.45;;;25.30;58.50;;;;;;5023343;28;20030;-70
2021/06/03 07:34:51;;;;;;;5.07;3.70;;;25.40;57.80;;;;;;5023324;28;20018;-71
2021/06/03 07:37:17;;;;;;;4.50;3.40;;;25.60;55.60;;;;;;5023332;28;20025;-70
2021/06/03 07:39:43;;;;;;;5.22;3.28;;;25.40;58.10;;;;;;5023305;28;20318;-70
2021/06/03 07:42:11;;;;;;;5.68;3.33;;;25.30;58.70;;;;;;5023253;28;20353;-71
2021/06/03 07:44:38;;;;;;;8.30;3.30;;;25.50;58.60;;;;;;5023227;28;20083;-71
2021/06/03 07:47:04;;;;;;;7.07;3.80;;;25.70;59.40;;;;;;5022900;28;20033;-70
2021/06/03 07:49:29;;;;;;;6.30;4.00;;;26.00;56.10;;;;;;5023122;28;20029;-70
2021/06/03 07:51:57;;;;;;;4.68;3.70;;;26.00;56.60;;;;;;5022884;28;20044;-71
2021/06/03 07:54:23;;;;;;;8.45;3.80;;;26.10;56.90;;;;;;5022842;28;20097;-71
2021/06/03 07:56:49;;;;;;;4.40;4.00;;;26.20;54.90;;;;;;5023166;28;20022;-71
2021/06/03 07:59:15;;;;;;;4.25;3.85;;;26.20;56.80;;;;;;5022798;28;20059;-70
2021/06/03 08:01:42;;;;;;;4.97;4.07;;;26.10;56.10;;;;;;5023084;28;20370;-70
2021/06/03 08:04:07;;;;;;;7.22;4.20;;;26.00;56.30;;;;;;5022812;28;20034;-71
2021/06/03 08:06:33;;;;;;;6.75;4.30;;;26.30;57.40;;;;;;5022995;28;20022;-71
2021/06/03 08:08:59;;;;;;;5.65;4.32;;;26.30;56.00;;;;;;5019817;28;20030;-70
2021/06/03 08:11:25;;;;;;;5.07;3.75;;;26.50;57.00;;;;;;5019888;28;20052;-70
2021/06/03 08:13:51;;;;;;;5.72;4.15;;;26.80;57.60;;;;;;5019560;28;20481;-71
2021/06/03 08:16:19;;;;;;;6.15;4.40;;;26.90;54.50;;;;;;5019790;28;20026;-71
2021/06/03 08:18:44;;;;;;;7.07;4.25;;;26.70;55.60;;;;;;5019793;28;20031;-70
2021/06/03 08:21:10;;;;;;;6.90;3.97;;;26.20;57.90;;;;;;5019364;28;20053;-71
2021/06/03 08:23:37;;;;;;;5.25;3.72;;;26.40;58.30;;;;;;5019396;28;20034;-70
2021/06/03 08:26:03;;;;;;;5.32;4.70;;;26.60;59.00;;;;;;5019605;28;20105;-71
2021/06/03 08:28:29;;;;;;;7.93;3.95;;;26.60;55.70;;;;;;5019223;28;20034;-70
2021/06/03 08:30:57;;;;;;;6.53;4.55;;;26.70;57.30;;;;;;5019258;28;20041;-70
2021/06/03 08:33:24;;;;;;;7.70;4.60;;;26.80;56.40;;;;;;5019253;28;20112;-71
2021/06/03 08:35:49;;;;;;;5.07;3.30;;;26.90;55.30;;;;;;5019427;28;20311;-70
2021/06/03 08:38:15;;;;;;;4.90;4.43;;;26.90;60.20;;;;;;5019404;28;20040;-70
2021/06/03 08:40:45;;;;;;;5.00;4.30;;;27.10;55.70;;;;;;5019052;28;20044;-70
2021/06/03 08:43:11;;;;;;;7.95;4.32;;;27.10;56.40;;;;;;5019327;28;20030;-71
2021/06/03 08:45:41;;;;;;;6.57;4.15;;;27.20;55.70;;;;;;5018818;28;20041;-70
2021/06/03 08:48:07;;;;;;;5.05;4.22;;;27.30;55.50;;;;;;5019154;28;20078;-71
2021/06/03 08:50:37;;;;;;;7.32;4.88;;;27.30;54.20;;;;;;5019177;28;20353;-71
2021/06/03 08:53:05;;;;;;;6.85;4.40;;;27.40;55.00;;;;;;5018927;28;20105;-71
2021/06/03 08:58:19;;;;;;;5.82;4.30;;;27.50;54.80;;;;;;5019066;28;20444;-71
2021/06/03 09:00:46;;;;;;;8.85;4.95;;;27.40;54.30;;;;;;5018691;28;20034;-70
2021/06/03 09:03:12;;;;;;;5.30;4.38;;;27.40;53.20;;;;;;5018660;28;20060;-70
2021/06/03 09:05:39;;;;;;;6.95;4.18;;;27.40;56.20;;;;;;5018866;28;20061;-71
2021/06/03 09:08:24;;;;;;;10.88;3.70;;;27.30;54.90;;;;;;5018801;28;20038;-71
2021/06/03 09:10:59;;;;;;;8.00;4.95;;;27.60;56.60;;;;;;5018858;28;20322;-71
2021/06/03 09:13:34;;;;;;;5.40;3.95;;;27.70;54.60;;;;;;5018511;28;20054;-70
2021/06/03 09:16:13;;;;;;;6.22;3.65;;;27.60;56.20;;;;;;5018883;28;20053;-70
2021/06/03 09:18:41;;;;;;;5.53;4.10;;;27.80;56.80;;;;;;5018389;28;20333;-70
2021/06/03 09:21:13;;;;;;;4.82;4.18;;;28.00;53.80;;;;;;5018103;28;20069;-70
2021/06/03 09:23:41;;;;;;;7.03;4.20;;;28.00;55.70;;;;;;5018319;28;20125;-71
2021/06/03 09:26:09;;;;;;;6.20;4.82;;;28.10;52.30;;;;;;5018163;28;20418;-71
2021/06/03 09:28:39;;;;;;;6.97;4.20;;;28.20;53.10;;;;;;5018095;28;20041;-71
2021/06/03 09:31:09;;;;;;;6.00;4.53;;;28.30;51.80;;;;;;5018476;28;20038;-71
2021/06/03 09:33:40;;;;;;;4.63;4.03;;;28.50;54.00;;;;;;5018142;28;20037;-70
2021/06/03 09:36:09;;;;;;;12.18;3.67;;;28.50;52.70;;;;;;5018294;28;20424;-71
2021/06/03 09:38:35;;;;;;;5.15;3.90;;;28.40;58.80;;;;;;5017991;28;20029;-71
2021/06/03 09:41:01;;;;;;;9.25;4.53;;;28.40;56.60;;;;;;5017954;28;20026;-71
2021/06/03 09:43:27;;;;;;;4.93;4.10;;;28.50;53.70;;;;;;5017914;28;20038;-71
2021/06/03 09:45:59;;;;;;;4.93;3.95;;;28.20;52.20;;;;;;5018231;28;20057;-71
2021/06/03 09:48:41;;;;;;;4.93;3.72;;;28.30;52.50;;;;;;5018052;28;20033;-71
2021/06/03 09:51:17;;;;;;;6.15;4.70;;;28.50;52.80;;;;;;5018087;28;20311;-71
2021/06/03 09:53:57;;;;;;;5.15;4.25;;;28.30;53.70;;;;;;5018114;28;20040;-71
2021/06/03 09:56:26;;;;;;;5.78;4.88;;;28.20;53.60;;;;;;5017688;28;20033;-70
2021/06/03 09:58:53;;;;;;;11.00;4.78;;;28.30;53.20;;;;;;5017653;28;20062;-71
2021/06/03 10:01:41;;;;;;;6.05;4.65;;;28.40;55.20;;;;;;5017520;28;20029;-71
2021/06/03 10:04:08;;;;;;;6.68;4.47;;;28.40;54.50;;;;;;5017563;28;20358;-70
2021/06/03 10:06:51;;;;;;;5.80;4.45;;;28.20;54.40;;;;;;5017457;28;20026;-71
2021/06/03 10:09:17;;;;;;;6.10;4.00;;;28.00;54.40;;;;;;5017455;28;20505;-70
2021/06/03 10:11:48;;;;;;;7.93;4.82;;;28.30;56.10;;;;;;5017418;28;20060;-70
2021/06/03 10:14:16;;;;;;;9.18;4.78;;;28.40;50.90;;;;;;5017368;28;20414;-70
2021/06/03 10:16:43;;;;;;;4.75;4.32;;;28.30;51.30;;;;;;5021352;28;20022;-71
2021/06/03 10:19:19;;;;;;;8.23;5.07;;;28.30;51.70;;;;;;5026019;28;20079;-71
2021/06/03 10:22:16;;;;;;;5.40;4.53;;;28.30;53.40;;;;;;5017628;28;20076;-71
2021/06/03 10:24:49;;;;;;;9.05;4.97;;;28.50;53.50;;;;;;5017140;28;20033;-70
2021/06/03 10:27:15;;;;;;;7.38;3.83;;;28.60;53.30;;;;;;5017427;28;20041;-70
2021/06/03 10:29:41;;;;;;;6.97;4.60;;;28.80;54.40;;;;;;5017467;28;20076;-71
2021/06/03 10:32:07;;;;;;;8.77;3.60;;;29.00;54.90;;;;;;5016627;28;20018;-70
2021/06/03 10:34:34;;;;;;;5.60;3.55;;;28.90;57.80;;;;;;5017370;28;20026;-71
2021/06/03 10:37:00;;;;;;;9.05;4.90;;;28.80;55.90;;;;;;5017351;28;20026;-70
2021/06/03 10:39:27;;;;;;;7.03;5.10;;;28.90;54.60;;;;;;5017361;28;20037;-70
2021/06/03 10:41:53;;;;;;;6.57;4.63;;;28.90;51.90;;;;;;5016980;28;20156;-70
2021/06/03 10:44:19;;;;;;;5.80;4.40;;;28.90;58.50;;;;;;5017343;28;20049;-70
2021/06/03 10:46:45;;;;;;;6.57;5.40;;;28.80;57.30;;;;;;5016954;28;20050;-71
2021/06/03 10:49:13;;;;;;;5.85;4.25;;;28.70;55.20;;;;;;5017180;28;20033;-71
2021/06/03 10:51:42;;;;;;;6.43;5.30;;;28.60;55.50;;;;;;5017229;28;20022;-70
2021/06/03 10:54:08;;;;;;;7.10;4.53;;;28.70;52.10;;;;;;5016925;28;20410;-70
2021/06/03 10:56:34;;;;;;;6.25;5.05;;;28.50;57.80;;;;;;5016767;28;20105;-71
2021/06/03 10:59:04;;;;;;;8.55;5.57;;;28.40;54.60;;;;;;5016820;28;20033;-70
2021/06/03 11:01:34;;;;;;;9.90;6.57;;;28.30;57.80;;;;;;5017105;28;20049;-70
2021/06/03 11:04:04;;;;;;;7.30;5.97;;;28.30;53.30;;;;;;5017123;28;20038;-71
2021/06/03 11:06:32;;;;;;;7.85;5.38;;;28.20;57.70;;;;;;5017048;28;20053;-70
2021/06/03 11:09:01;;;;;;;7.03;4.70;;;28.10;56.60;;;;;;5016654;28;20033;-71
2021/06/03 11:11:44;;;;;;;5.85;4.97;;;28.00;61.50;;;;;;5016695;28;20470;-70
2021/06/03 11:14:19;;;;;;;9.45;5.97;;;28.10;58.70;;;;;;5016986;28;20425;-71
2021/06/03 11:16:55;;;;;;;5.38;4.78;;;28.20;57.10;;;;;;5016666;28;20030;-70
2021/06/03 11:19:24;;;;;;;4.45;3.95;;;28.30;55.60;;;;;;5016735;28;20033;-70
2021/06/03 11:21:52;;;;;;;6.95;4.88;;;28.30;58.10;;;;;;5016966;28;20050;-71
2021/06/03 11:24:24;;;;;;;7.22;4.25;;;28.30;56.70;;;;;;5016608;28;20438;-70
2021/06/03 11:26:52;;;;;;;5.68;5.07;;;28.30;60.60;;;;;;5016556;28;20061;-71
2021/06/03 11:29:22;;;;;;;6.57;4.88;;;28.10;57.50;;;;;;5016500;28;20031;-70
2021/06/03 11:32:06;;;;;;;8.88;5.95;;;27.90;59.00;;;;;;5016785;28;20026;-70
2021/06/03 11:34:38;;;;;;;5.97;4.90;;;27.70;55.40;;;;;;5016790;28;20331;-71
2021/06/03 11:37:08;;;;;;;13.15;6.28;;;27.60;60.60;;;;;;5016808;28;20326;-71
2021/06/03 11:39:58;;;;;;;6.90;6.30;;;27.40;58.60;;;;;;5016811;28;20340;-71
2021/06/03 11:42:41;;;;;;;9.35;5.78;;;27.30;57.80;;;;;;5014542;28;20041;-71
2021/06/03 11:45:28;;;;;;;11.60;6.15;;;26.80;58.60;;;;;;5020589;28;20033;-70
2021/06/03 11:47:56;;;;;;;8.02;6.30;;;26.70;58.80;;;;;;5020321;28;20057;-70
2021/06/03 11:50:22;;;;;;;7.13;6.43;;;26.70;59.20;;;;;;5020024;28;20411;-71
2021/06/03 11:52:59;;;;;;;9.82;5.82;;;26.60;59.20;;;;;;5020036;28;20032;-70
2021/06/03 11:55:41;;;;;;;6.30;5.65;;;26.40;61.10;;;;;;5019944;28;20029;-71
2021/06/03 11:58:28;;;;;;;6.68;6.07;;;26.30;60.10;;;;;;5020228;28;20133;-71
2021/06/03 12:01:07;;;;;;;9.35;7.50;;;26.20;62.90;;;;;;5020159;28;20033;-71
2021/06/03 12:03:35;;;;;;;6.60;5.90;;;25.80;59.70;;;;;;5020154;28;20052;-71
2021/06/03 12:06:05;;;;;;;10.07;7.13;;;25.60;65.20;;;;;;5019660;28;20030;-70
2021/06/03 12:08:43;;;;;;;8.75;7.10;;;25.70;62.70;;;;;;5019951;28;20416;-71
2021/06/03 12:11:31;;;;;;;7.53;4.72;;;25.60;63.40;;;;;;5019966;28;20029;-71
2021/06/03 12:14:06;;;;;;;8.20;4.80;;;25.70;68.90;;;;;;5015694;28;20079;-71
2021/06/03 12:16:33;;;;;;;;;;;25.80;65.70;;;;;;5019917;28;20367;-71
2021/06/03 12:18:58;;;;;;;7.32;6.65;;;25.90;61.50;;;;;;5019570;28;19960;-70
2021/06/03 12:21:24;;;;;;;6.65;6.00;;;25.90;61.20;;;;;;5019337;28;20084;-70
2021/06/03 12:23:52;;;;;;;7.97;6.60;;;25.50;61.00;;;;;;5019804;28;20030;-70
2021/06/03 12:26:24;;;;;;;9.13;6.50;;;25.50;64.20;;;;;;5019573;28;20052;-71
2021/06/03 12:28:50;;;;;;;7.43;5.28;;;25.30;63.60;;;;;;5019248;28;20029;-70
2021/06/03 12:31:18;;;;;;;7.63;6.68;;;25.10;67.30;;;;;;5019272;28;20046;-70
2021/06/03 12:33:44;;;;;;;7.07;6.18;;;25.00;64.80;;;;;;5019612;28;20314;-71
2021/06/03 12:36:10;;;;;;;7.35;6.18;;;25.10;63.10;;;;;;5019181;28;20030;-71
2021/06/03 12:38:41;;;;;;;8.30;5.55;;;25.20;63.10;;;;;;5019511;28;20033;-71
2021/06/03 12:41:29;;;;;;;7.15;5.43;;;25.40;67.00;;;;;;5019408;28;20052;-71
2021/06/03 12:43:59;;;;;;;8.57;5.80;;;25.60;68.20;;;;;;5019354;28;20034;-71
2021/06/03 12:46:56;;;;;;;9.18;6.90;;;25.70;65.80;;;;;;5019211;28;20038;-71
2021/06/03 12:49:26;;;;;;;10.15;6.03;;;25.60;61.60;;;;;;5018924;28;20034;-70
2021/06/03 12:51:54;;;;;;;7.50;6.60;;;25.40;67.50;;;;;;5019194;28;20022;-71
2021/06/03 12:54:38;;;;;;;8.82;6.68;;;25.50;64.80;;;;;;5018341;28;20018;-71
2021/06/03 12:57:09;;;;;;;9.02;7.15;;;25.40;63.60;;;;;;5018781;28;20030;-71
2021/06/03 12:59:37;;;;;;;7.75;5.65;;;25.40;62.60;;;;;;5018802;28;20112;-70